Sao Benedito do Rio Preto, Brazil
Current Conditions -  °F | °C
As of 6:00 PM on Friday 24 Oct 2014 (Local Time) from SBSL Reporting Station
Scattered Clouds Scattered Clouds  
Wind Chill: 82°   Ceiling: Unl
Heat Index: 87°   Visibility: 6mi
Dew Point: 72°   Wind: 20mph
Humidity: 70%   Direction: 30°NNE
Pressure: 29.77"   Gusts: NA
Location:  3.33°S, 43.53°W
Report Text: SBSL 242100Z 03017KT 9999 SCT020 28/22 Q1008
Loading
Personal Weather Stations






























Interactive Weather Map
Tropical Storm Tracking
New forecast layout! Learn more

10-Day Weather Forecast

Advertisements
Track Severe Weather on mobile